Harry Richardson

Главный скаут - Manchester United
20 Май 2027
Четверг
Продолжить

Характер

Адаптивность (16) Амбиции (15) Скандальность (7) Верность (4) Стрессоустойчивость (13) Профессионализм (16) Благородство (8) Темперамент (17)

Профиль

Стиль управления Демократичный
Лицензия Национальная B
Решительность 10
Управление людьми 9
Мотивация 12
Дисциплина 11
Удовлетворённость
56%
Усталость
0%
Должность Главный скаут
Зарплата 120.2K в нед.
Контракт 14.03.2029

Производительность

Поведение Хорошее
Эффективность тренировок
28%
Развитие игроков
60%
Профилактика травм
80%
Тактическая реализация
65%

Недавние события

Оценил игрока только что
Участвовал в селекционном совещании только что
Рекомендовал трансферную цель только что
Рекомендовал трансферную цель только что
Рекомендовал трансферную цель только что
Рекомендовал трансферную цель только что
Рекомендовал трансферную цель только что
Оценил игрока только что

Текущее наблюдение

89
Игрок Клуб Статус Способность Уверенность Наблюдений Последнее наблюдение Последний голос
Morgan Rogers Chelsea Активный 162 / 158 40% 16 19.05.2027 -
Alexis Saelemaekers AC Milan Активный 155 / 160 40% 7 19.05.2027 -
Kevin Fulham Активный 149 / 152 40% 2 19.05.2027 -
Sandro Tonali Tottenham Активный 174 / 166 40% 25 18.05.2027 -
Xaver Schlager Nottingham Forest Активный 148 / 161 40% 12 18.05.2027 -
Ousmane Diomande Nottingham Forest Активный 156 / 154 40% 14 18.05.2027 -
Óscar Mingueza Crystal Palace Активный 150 / 147 40% 5 18.05.2027 -
Ander Barrenetxea Real Sociedad Активный 150 / 159 40% 8 18.05.2027 -
Moisés Caicedo Chelsea Активный 170 / 179 40% 16 18.05.2027 -
Kaoru Mitoma Brighton Активный 158 / 162 40% 13 17.05.2027 -
Kai Havertz Arsenal Активный 164 / 153 40% 9 17.05.2027 -
Nicolas Jackson Aston Villa Активный 146 / 155 40% 9 17.05.2027 -
Jacob Ramsey Newcastle United Активный 155 / 151 40% 13 16.05.2027 -
Curtis Jones Inter Активный 158 / 157 40% 10 16.05.2027 -
Matías Soulé AS Roma Активный 156 / 164 40% 4 12.05.2027 -
Kenan Yıldız Juventus Активный 162 / 167 40% 7 11.05.2027 -
Hector Ramirez Newcastle United Активный 153 / 161 40% 30 10.05.2027 -
Francisco Conceição Juventus Активный 160 / 164 40% 7 10.05.2027 -
Gabriel Martinelli Brighton Активный 165 / 153 40% 2 10.05.2027 -
Wesley Fofana Chelsea Активный 165 / 152 40% 16 09.05.2027 -
Callum Hudson-Odoi Nottingham Forest Активный 151 / 161 40% 11 07.05.2027 -
João Pedro Chelsea Активный 155 / 160 40% 8 07.05.2027 -
Emile Smith Rowe Fulham Активный 153 / 141 40% 11 07.05.2027 -
Kiernan Dewsbury-Hall Everton Активный 151 / 155 40% 7 06.05.2027 -
Boubacar Kamara Aston Villa Активный 162 / 154 40% 18 05.05.2027 -
Nico González Newcastle United Активный 161 / 150 40% 27 03.05.2027 -
Charles De Ketelaere Atalanta Активный 156 / 148 40% 5 03.05.2027 -
Manuel Locatelli Juventus Активный 153 / 162 40% 2 03.05.2027 -
Konstantin Tyukavin Inter Активный 136 / 130 40% 1 03.05.2027 -
Emanuel Emegha Chelsea Активный 140 / 147 40% 1 03.05.2027 -
Ricardo Pepi Chelsea Активный 144 / 141 40% 1 03.05.2027 -
Christian Pulisic AC Milan Активный 161 / 156 40% 3 29.04.2027 -
Tyler Adams Bournemouth Активный 156 / 162 40% 16 29.04.2027 -
Manu Koné AS Roma Активный 162 / 168 40% 5 27.04.2027 -
William Saliba Arsenal Активный 175 / 171 40% 18 26.04.2027 -
Amadou Onana Aston Villa Активный 153 / 159 40% 14 26.04.2027 -
Bruno Guimarães Arsenal Активный 169 / 162 40% 15 24.04.2027 -
Jarrad Branthwaite Everton Активный 157 / 147 40% 12 24.04.2027 -
Adrien Truffert Bournemouth Активный 153 / 151 40% 5 24.04.2027 -
Declan Rice Arsenal Активный 182 / 191 40% 4 21.04.2027 -
Jan Paul van Hecke Tottenham Активный 159 / 166 40% 13 20.04.2027 -
Iliman N'Diaye Everton Активный 157 / 162 40% 6 20.04.2027 -
Xavi Simons Tottenham Активный 156 / 157 40% 9 18.04.2027 -
Mohammed Kudus Tottenham Активный 155 / 152 40% 5 18.04.2027 -
Benjamin White Arsenal Активный 160 / 159 40% 10 12.04.2027 -
James Maddison Tottenham Активный 162 / 161 40% 7 06.04.2027 -
Tino Livramento Newcastle United Активный 156 / 166 40% 3 05.04.2027 -
Sven Botman Newcastle United Активный 161 / 147 40% 9 03.04.2027 -
Jarrod Bowen West Ham United Активный 152 / 144 40% 5 28.03.2027 -
Gabriel Arsenal Активный 172 / 165 40% 12 24.03.2027 -
Quinten Timber Crystal Palace Активный 153 / 151 40% 8 20.03.2027 -
Martin Ødegaard Arsenal Отклонён 182 / 186 40% 3 14.03.2027 Против
Leon Goretzka Aston Villa Активный 159 / 160 40% 7 07.03.2027 -
Levi Colwill Chelsea Активный 158 / 160 40% 20 04.03.2027 -
Jurriën Timber Arsenal Активный 163 / 172 40% 8 04.03.2027 -
Reece James Chelsea Активный 168 / 166 40% 11 28.02.2027 -
Pierre Kalulu Juventus Активный 157 / 145 40% 3 08.02.2027 -
Francisco Trincão Zenit Переговоры 156 / 158 40% 1 27.01.2027 -
Tino Livramento Newcastle United Упущен 157 / 165 40% 13 18.01.2027 -
Dejan Kulusevski Tottenham Отклонён 169 / 168 40% 1 18.01.2027 -
Francisco Conceição Juventus Упущен 160 / 150 40% 1 03.01.2027 -
Martín Zubimendi Arsenal Упущен 159 / 167 40% 5 01.01.2027 -
Raúl Rangel Sporting CP Активный 132 / 132 66% 1 01.01.2027 За
Mao Hosoya Sagan Tosu Активный 134 / 135 67% 1 01.01.2027 За
Stanislav Agkatsev Sunderland Переговоры 132 / 133 66% 1 01.01.2027 За
Marvin Keller Bayer Leverkusen Активный 136 / 137 67% 1 01.01.2027 За
Dmytro Riznyk Cruz Azul Переговоры 137 / 137 66% 1 01.01.2027 За
Kostantis Tzolakis Hull City Упущен 136 / 139 67% 1 01.01.2027 -
Curtis Jones Inter Упущен 159 / 148 40% 4 31.12.2026 -
David Neres Napoli Упущен 158 / 155 40% 1 31.12.2026 -
James Garner Everton Активный 152 / 159 40% 4 30.12.2026 -
Warren Zaïre-Emery Paris Saint-Germain Активный 157 / 161 40% 5 23.12.2026 -
Mikel Merino Arsenal Активный 154 / 159 40% 2 21.12.2026 -
Andrew Robertson Tottenham Активный 155 / 161 40% 6 15.12.2026 -
Destiny Udogie Tottenham Активный 151 / 152 40% 1 14.12.2026 -
Ian Maatsen Aston Villa Активный 153 / 160 40% 3 11.12.2026 -
Murillo Nottingham Forest Активный 153 / 156 40% 7 06.12.2026 -
Federico Dimarco Inter Активный 161 / 161 40% 1 30.11.2026 -
Nicolò Rovella Lazio Активный 148 / 160 40% 2 17.11.2026 -
Conor Gallagher Tottenham Активный 150 / 148 40% 6 10.11.2026 -
Adam Wharton Crystal Palace Упущен 147 / 162 40% 5 09.11.2026 -
Micky van de Ven Tottenham Упущен 155 / 160 40% 7 22.10.2026 -
Malick Thiaw West Ham United Активный 154 / 157 40% 2 12.10.2026 -
Matty Cash Aston Villa Активный 150 / 144 40% 3 09.10.2026 -
Mauro Arambarri River Plate Активный 156 / 136 40% 2 23.09.2026 -
Ezri Konsa Arsenal Активный 148 / 150 40% 2 18.09.2026 -
Fabián Paris Saint-Germain Активный 167 / 162 40% 1 15.09.2026 -
Stanislav Lobotka Galatasaray Активный 158 / 169 40% 1 10.09.2026 -
Rodrigo De Paul Inter Miami CF Активный 153 / 158 40% 1 24.08.2026 -